sensor_id;sensor_type;location;lat;lon;timestamp;temperature;humidity
3860;DHT22;1945;52.036;8.614;2022-10-31T00:00:09;12.30;99.90
3860;DHT22;1945;52.036;8.614;2022-10-31T00:02:37;12.30;99.90
3860;DHT22;1945;52.036;8.614;2022-10-31T00:05:06;12.30;99.90
3860;DHT22;1945;52.036;8.614;2022-10-31T00:07:33;12.30;99.90
3860;DHT22;1945;52.036;8.614;2022-10-31T00:10:00;12.20;99.90
3860;DHT22;1945;52.036;8.614;2022-10-31T00:12:27;12.10;99.90
3860;DHT22;1945;52.036;8.614;2022-10-31T00:14:53;12.10;99.90
3860;DHT22;1945;52.036;8.614;2022-10-31T00:17:20;12.10;99.90
3860;DHT22;1945;52.036;8.614;2022-10-31T00:19:47;12.00;99.90
3860;DHT22;1945;52.036;8.614;2022-10-31T00:22:15;12.00;99.90
3860;DHT22;1945;52.036;8.614;2022-10-31T00:24:42;12.00;99.90
3860;DHT22;1945;52.036;8.614;2022-10-31T00:27:08;12.00;99.90
3860;DHT22;1945;52.036;8.614;2022-10-31T00:29:35;12.00;99.90
3860;DHT22;1945;52.036;8.614;2022-10-31T00:32:02;12.00;99.90
3860;DHT22;1945;52.036;8.614;2022-10-31T00:34:29;12.00;99.90
3860;DHT22;1945;52.036;8.614;2022-10-31T00:36:56;12.00;99.90
3860;DHT22;1945;52.036;8.614;2022-10-31T00:39:24;12.00;99.90
3860;DHT22;1945;52.036;8.614;2022-10-31T00:41:50;12.00;99.90
3860;DHT22;1945;52.036;8.614;2022-10-31T00:44:17;11.90;99.90
3860;DHT22;1945;52.036;8.614;2022-10-31T00:46:44;11.70;99.90
3860;DHT22;1945;52.036;8.614;2022-10-31T00:49:11;11.60;99.90
3860;DHT22;1945;52.036;8.614;2022-10-31T00:51:38;11.70;99.90
3860;DHT22;1945;52.036;8.614;2022-10-31T00:54:04;11.70;99.90
3860;DHT22;1945;52.036;8.614;2022-10-31T00:56:32;11.70;99.90
3860;DHT22;1945;52.036;8.614;2022-10-31T00:58:59;11.70;99.90
3860;DHT22;1945;52.036;8.614;2022-10-31T01:01:26;11.60;99.90
3860;DHT22;1945;52.036;8.614;2022-10-31T01:03:53;11.60;99.90
3860;DHT22;1945;52.036;8.614;2022-10-31T01:06:19;11.60;99.90
3860;DHT22;1945;52.036;8.614;2022-10-31T01:08:47;11.70;99.90
3860;DHT22;1945;52.036;8.614;2022-10-31T01:11:16;11.60;99.90
3860;DHT22;1945;52.036;8.614;2022-10-31T01:13:45;11.50;99.90
3860;DHT22;1945;52.036;8.614;2022-10-31T01:16:14;11.40;99.90
3860;DHT22;1945;52.036;8.614;2022-10-31T01:18:41;11.30;99.90
3860;DHT22;1945;52.036;8.614;2022-10-31T01:21:10;11.30;99.90
3860;DHT22;1945;52.036;8.614;2022-10-31T01:23:37;11.30;99.90
3860;DHT22;1945;52.036;8.614;2022-10-31T01:26:07;11.20;99.90
3860;DHT22;1945;52.036;8.614;2022-10-31T01:28:35;11.30;99.90
3860;DHT22;1945;52.036;8.614;2022-10-31T01:31:05;11.20;99.90
3860;DHT22;1945;52.036;8.614;2022-10-31T01:33:32;11.20;99.90
3860;DHT22;1945;52.036;8.614;2022-10-31T01:35:59;11.20;99.90
3860;DHT22;1945;52.036;8.614;2022-10-31T01:38:27;11.20;99.90
3860;DHT22;1945;52.036;8.614;2022-10-31T01:40:54;11.20;99.90
3860;DHT22;1945;52.036;8.614;2022-10-31T01:43:20;11.10;99.90
3860;DHT22;1945;52.036;8.614;2022-10-31T01:45:51;11.10;99.90
3860;DHT22;1945;52.036;8.614;2022-10-31T01:48:24;11.60;99.90
3860;DHT22;1945;52.036;8.614;2022-10-31T01:50:56;11.20;99.90
3860;DHT22;1945;52.036;8.614;2022-10-31T01:53:23;11.10;99.90
3860;DHT22;1945;52.036;8.614;2022-10-31T01:55:50;11.20;99.90
3860;DHT22;1945;52.036;8.614;2022-10-31T01:58:20;11.10;99.90
3860;DHT22;1945;52.036;8.614;2022-10-31T02:00:52;11.10;99.90
3860;DHT22;1945;52.036;8.614;2022-10-31T02:03:22;11.10;99.90
3860;DHT22;1945;52.036;8.614;2022-10-31T02:05:50;11.10;99.90
3860;DHT22;1945;52.036;8.614;2022-10-31T02:08:21;10.90;99.90
3860;DHT22;1945;52.036;8.614;2022-10-31T02:10:49;10.70;99.90
3860;DHT22;1945;52.036;8.614;2022-10-31T02:13:17;10.80;99.90
3860;DHT22;1945;52.036;8.614;2022-10-31T02:15:45;11.20;99.90
3860;DHT22;1945;52.036;8.614;2022-10-31T02:18:13;10.80;99.90
3860;DHT22;1945;52.036;8.614;2022-10-31T02:20:48;11.00;99.90
3860;DHT22;1945;52.036;8.614;2022-10-31T02:23:41;11.00;99.90
3860;DHT22;1945;52.036;8.614;2022-10-31T02:26:22;10.80;99.90
3860;DHT22;1945;52.036;8.614;2022-10-31T02:29:13;10.70;99.90
3860;DHT22;1945;52.036;8.614;2022-10-31T02:31:46;10.70;99.90
3860;DHT22;1945;52.036;8.614;2022-10-31T02:34:19;10.60;99.90
3860;DHT22;1945;52.036;8.614;2022-10-31T02:36:52;10.60;99.90
3860;DHT22;1945;52.036;8.614;2022-10-31T02:39:23;10.60;99.90
3860;DHT22;1945;52.036;8.614;2022-10-31T02:41:57;10.50;99.90
3860;DHT22;1945;52.036;8.614;2022-10-31T02:44:32;10.90;99.90
3860;DHT22;1945;52.036;8.614;2022-10-31T02:47:05;10.60;99.90
3860;DHT22;1945;52.036;8.614;2022-10-31T02:49:38;10.50;99.90
3860;DHT22;1945;52.036;8.614;2022-10-31T02:52:14;10.60;99.90
3860;DHT22;1945;52.036;8.614;2022-10-31T02:54:44;10.50;99.90
3860;DHT22;1945;52.036;8.614;2022-10-31T02:57:10;10.60;99.90
3860;DHT22;1945;52.036;8.614;2022-10-31T02:59:42;10.60;99.90
3860;DHT22;1945;52.036;8.614;2022-10-31T03:05:18;10.60;99.90
3860;DHT22;1945;52.036;8.614;2022-10-31T03:07:56;10.70;99.90
3860;DHT22;1945;52.036;8.614;2022-10-31T03:10:31;10.70;99.90
3860;DHT22;1945;52.036;8.614;2022-10-31T03:13:08;10.70;99.90
3860;DHT22;1945;52.036;8.614;2022-10-31T03:15:39;10.70;99.90
3860;DHT22;1945;52.036;8.614;2022-10-31T03:18:15;10.70;99.90
3860;DHT22;1945;52.036;8.614;2022-10-31T03:20:47;10.80;99.90
3860;DHT22;1945;52.036;8.614;2022-10-31T03:23:18;10.80;99.90
3860;DHT22;1945;52.036;8.614;2022-10-31T03:25:47;10.90;99.90
3860;DHT22;1945;52.036;8.614;2022-10-31T03:28:17;10.90;99.90
3860;DHT22;1945;52.036;8.614;2022-10-31T03:30:47;10.90;99.90
3860;DHT22;1945;52.036;8.614;2022-10-31T03:33:19;10.90;99.90
3860;DHT22;1945;52.036;8.614;2022-10-31T03:35:50;10.90;99.90
3860;DHT22;1945;52.036;8.614;2022-10-31T03:38:18;10.90;99.90
3860;DHT22;1945;52.036;8.614;2022-10-31T03:40:47;11.00;99.90
3860;DHT22;1945;52.036;8.614;2022-10-31T03:43:17;11.00;99.90
3860;DHT22;1945;52.036;8.614;2022-10-31T03:45:46;11.10;99.90
3860;DHT22;1945;52.036;8.614;2022-10-31T03:48:14;11.00;99.90
3860;DHT22;1945;52.036;8.614;2022-10-31T03:50:49;10.90;99.90
3860;DHT22;1945;52.036;8.614;2022-10-31T03:53:20;10.90;99.90
3860;DHT22;1945;52.036;8.614;2022-10-31T03:55:51;10.80;99.90
3860;DHT22;1945;52.036;8.614;2022-10-31T03:58:21;10.80;99.90
3860;DHT22;1945;52.036;8.614;2022-10-31T04:00:51;10.90;99.90
3860;DHT22;1945;52.036;8.614;2022-10-31T04:03:22;10.80;99.90
3860;DHT22;1945;52.036;8.614;2022-10-31T04:05:52;10.80;99.90
3860;DHT22;1945;52.036;8.614;2022-10-31T04:08:23;10.80;99.90
3860;DHT22;1945;52.036;8.614;2022-10-31T04:10:52;11.10;99.90
3860;DHT22;1945;52.036;8.614;2022-10-31T04:13:26;10.70;99.90
3860;DHT22;1945;52.036;8.614;2022-10-31T04:15:55;10.70;99.90
3860;DHT22;1945;52.036;8.614;2022-10-31T04:18:22;10.60;99.90
3860;DHT22;1945;52.036;8.614;2022-10-31T04:21:00;10.60;99.90
3860;DHT22;1945;52.036;8.614;2022-10-31T04:23:27;11.10;99.90
3860;DHT22;1945;52.036;8.614;2022-10-31T04:25:54;10.50;99.90
3860;DHT22;1945;52.036;8.614;2022-10-31T04:28:22;10.50;99.90
3860;DHT22;1945;52.036;8.614;2022-10-31T04:30:49;10.50;99.90
3860;DHT22;1945;52.036;8.614;2022-10-31T04:33:16;10.50;99.90
3860;DHT22;1945;52.036;8.614;2022-10-31T04:35:43;10.40;99.90
3860;DHT22;1945;52.036;8.614;2022-10-31T04:38:11;10.30;99.90
3860;DHT22;1945;52.036;8.614;2022-10-31T04:40:38;10.30;99.90
3860;DHT22;1945;52.036;8.614;2022-10-31T04:43:04;10.40;99.90
3860;DHT22;1945;52.036;8.614;2022-10-31T04:45:31;10.30;99.90
3860;DHT22;1945;52.036;8.614;2022-10-31T04:47:58;10.20;99.90
3860;DHT22;1945;52.036;8.614;2022-10-31T04:50:25;10.20;99.90
3860;DHT22;1945;52.036;8.614;2022-10-31T04:53:05;10.20;99.90
3860;DHT22;1945;52.036;8.614;2022-10-31T04:55:35;10.20;99.90
3860;DHT22;1945;52.036;8.614;2022-10-31T04:58:02;10.70;99.90
3860;DHT22;1945;52.036;8.614;2022-10-31T05:00:29;10.20;99.90
3860;DHT22;1945;52.036;8.614;2022-10-31T05:02:57;10.10;99.90
3860;DHT22;1945;52.036;8.614;2022-10-31T05:05:25;10.10;99.90
3860;DHT22;1945;52.036;8.614;2022-10-31T05:07:53;10.10;99.90
3860;DHT22;1945;52.036;8.614;2022-10-31T05:10:25;10.10;99.90
3860;DHT22;1945;52.036;8.614;2022-10-31T05:12:57;10.00;99.90
3860;DHT22;1945;52.036;8.614;2022-10-31T05:15:26;10.00;99.90
3860;DHT22;1945;52.036;8.614;2022-10-31T05:17:54;10.20;99.90
3860;DHT22;1945;52.036;8.614;2022-10-31T05:20:23;9.90;99.90
3860;DHT22;1945;52.036;8.614;2022-10-31T05:22:51;9.90;99.90
3860;DHT22;1945;52.036;8.614;2022-10-31T05:25:19;9.80;99.90
3860;DHT22;1945;52.036;8.614;2022-10-31T05:27:50;9.80;99.90
3860;DHT22;1945;52.036;8.614;2022-10-31T05:30:20;9.80;99.90
3860;DHT22;1945;52.036;8.614;2022-10-31T05:32:49;9.70;99.90
3860;DHT22;1945;52.036;8.614;2022-10-31T05:35:19;9.40;99.90
3860;DHT22;1945;52.036;8.614;2022-10-31T05:37:46;9.70;99.90
3860;DHT22;1945;52.036;8.614;2022-10-31T05:40:15;9.70;99.90
3860;DHT22;1945;52.036;8.614;2022-10-31T05:42:42;9.70;99.90
3860;DHT22;1945;52.036;8.614;2022-10-31T05:45:11;9.70;99.90
3860;DHT22;1945;52.036;8.614;2022-10-31T05:47:39;9.70;99.90
3860;DHT22;1945;52.036;8.614;2022-10-31T05:50:07;9.70;99.90
3860;DHT22;1945;52.036;8.614;2022-10-31T05:52:35;9.60;99.90
3860;DHT22;1945;52.036;8.614;2022-10-31T05:55:03;9.80;99.90
3860;DHT22;1945;52.036;8.614;2022-10-31T05:57:33;9.60;99.90
3860;DHT22;1945;52.036;8.614;2022-10-31T06:00:00;9.60;99.90
3860;DHT22;1945;52.036;8.614;2022-10-31T06:02:27;9.50;99.90
3860;DHT22;1945;52.036;8.614;2022-10-31T06:04:59;9.80;99.90
3860;DHT22;1945;52.036;8.614;2022-10-31T06:07:26;9.50;99.90
3860;DHT22;1945;52.036;8.614;2022-10-31T06:09:52;9.50;99.90
3860;DHT22;1945;52.036;8.614;2022-10-31T06:12:19;9.50;99.90
3860;DHT22;1945;52.036;8.614;2022-10-31T06:14:46;9.90;99.90
3860;DHT22;1945;52.036;8.614;2022-10-31T06:17:13;9.50;99.90
3860;DHT22;1945;52.036;8.614;2022-10-31T06:19:39;9.40;99.90
3860;DHT22;1945;52.036;8.614;2022-10-31T06:22:08;9.50;99.90
3860;DHT22;1945;52.036;8.614;2022-10-31T06:24:36;9.50;99.90
3860;DHT22;1945;52.036;8.614;2022-10-31T06:27:04;9.50;99.90
3860;DHT22;1945;52.036;8.614;2022-10-31T06:29:33;9.40;99.90
3860;DHT22;1945;52.036;8.614;2022-10-31T06:32:00;9.50;99.90
3860;DHT22;1945;52.036;8.614;2022-10-31T06:34:27;9.50;99.90
3860;DHT22;1945;52.036;8.614;2022-10-31T06:36:54;9.50;99.90
3860;DHT22;1945;52.036;8.614;2022-10-31T06:39:22;9.50;99.90
3860;DHT22;1945;52.036;8.614;2022-10-31T06:41:49;9.50;99.90
3860;DHT22;1945;52.036;8.614;2022-10-31T06:44:16;9.60;99.90
3860;DHT22;1945;52.036;8.614;2022-10-31T06:46:43;9.60;99.90
3860;DHT22;1945;52.036;8.614;2022-10-31T06:49:12;9.50;99.90
3860;DHT22;1945;52.036;8.614;2022-10-31T06:51:38;9.50;99.90
3860;DHT22;1945;52.036;8.614;2022-10-31T06:54:05;9.50;99.90
3860;DHT22;1945;52.036;8.614;2022-10-31T06:56:33;9.60;99.90
3860;DHT22;1945;52.036;8.614;2022-10-31T06:59:00;9.60;99.90
3860;DHT22;1945;52.036;8.614;2022-10-31T07:01:27;9.70;99.90
3860;DHT22;1945;52.036;8.614;2022-10-31T07:03:54;9.80;99.90
3860;DHT22;1945;52.036;8.614;2022-10-31T07:06:21;9.90;99.90
3860;DHT22;1945;52.036;8.614;2022-10-31T07:08:47;9.80;99.90
3860;DHT22;1945;52.036;8.614;2022-10-31T07:11:14;9.80;99.90
3860;DHT22;1945;52.036;8.614;2022-10-31T07:13:43;9.90;99.90
3860;DHT22;1945;52.036;8.614;2022-10-31T07:16:10;9.90;99.90
3860;DHT22;1945;52.036;8.614;2022-10-31T07:18:38;10.00;99.90
3860;DHT22;1945;52.036;8.614;2022-10-31T07:21:05;10.10;99.90
3860;DHT22;1945;52.036;8.614;2022-10-31T07:23:32;10.20;99.90
3860;DHT22;1945;52.036;8.614;2022-10-31T07:26:00;10.20;99.90
3860;DHT22;1945;52.036;8.614;2022-10-31T07:28:27;10.30;99.90
3860;DHT22;1945;52.036;8.614;2022-10-31T07:30:57;10.40;99.90
3860;DHT22;1945;52.036;8.614;2022-10-31T07:33:25;10.50;99.90
3860;DHT22;1945;52.036;8.614;2022-10-31T07:35:53;10.50;99.90
3860;DHT22;1945;52.036;8.614;2022-10-31T07:38:20;10.60;99.90
3860;DHT22;1945;52.036;8.614;2022-10-31T07:40:50;10.70;99.90
3860;DHT22;1945;52.036;8.614;2022-10-31T07:43:18;10.80;99.90
3860;DHT22;1945;52.036;8.614;2022-10-31T07:45:49;10.90;99.90
3860;DHT22;1945;52.036;8.614;2022-10-31T07:48:18;11.10;99.90
3860;DHT22;1945;52.036;8.614;2022-10-31T07:50:45;11.30;99.90
3860;DHT22;1945;52.036;8.614;2022-10-31T07:53:13;11.50;99.90
3860;DHT22;1945;52.036;8.614;2022-10-31T07:55:40;11.60;99.90
3860;DHT22;1945;52.036;8.614;2022-10-31T07:58:09;11.70;99.90
3860;DHT22;1945;52.036;8.614;2022-10-31T08:00:37;11.80;99.90
3860;DHT22;1945;52.036;8.614;2022-10-31T08:03:08;11.90;99.90
3860;DHT22;1945;52.036;8.614;2022-10-31T08:05:37;12.00;99.90
3860;DHT22;1945;52.036;8.614;2022-10-31T08:08:05;12.20;99.90
3860;DHT22;1945;52.036;8.614;2022-10-31T08:10:33;12.20;99.90
3860;DHT22;1945;52.036;8.614;2022-10-31T08:13:02;12.30;99.90
3860;DHT22;1945;52.036;8.614;2022-10-31T08:15:29;12.40;99.90
3860;DHT22;1945;52.036;8.614;2022-10-31T08:17:57;12.50;99.90
3860;DHT22;1945;52.036;8.614;2022-10-31T08:20:23;12.60;99.90
3860;DHT22;1945;52.036;8.614;2022-10-31T08:22:56;12.60;99.90
3860;DHT22;1945;52.036;8.614;2022-10-31T08:25:24;12.70;99.90
3860;DHT22;1945;52.036;8.614;2022-10-31T08:27:52;13.10;99.90
3860;DHT22;1945;52.036;8.614;2022-10-31T08:30:19;12.90;99.90
3860;DHT22;1945;52.036;8.614;2022-10-31T08:32:46;13.00;99.90
3860;DHT22;1945;52.036;8.614;2022-10-31T08:35:14;13.10;99.90
3860;DHT22;1945;52.036;8.614;2022-10-31T08:37:41;13.10;99.90
3860;DHT22;1945;52.036;8.614;2022-10-31T08:40:10;13.20;99.90
3860;DHT22;1945;52.036;8.614;2022-10-31T08:42:38;13.40;99.90
3860;DHT22;1945;52.036;8.614;2022-10-31T08:45:05;13.20;99.90
3860;DHT22;1945;52.036;8.614;2022-10-31T08:47:32;13.30;99.90
3860;DHT22;1945;52.036;8.614;2022-10-31T08:49:59;13.30;99.90
3860;DHT22;1945;52.036;8.614;2022-10-31T08:52:26;13.30;99.90
3860;DHT22;1945;52.036;8.614;2022-10-31T08:54:52;13.30;99.90
3860;DHT22;1945;52.036;8.614;2022-10-31T08:57:20;13.40;99.90
3860;DHT22;1945;52.036;8.614;2022-10-31T08:59:47;13.40;99.90
3860;DHT22;1945;52.036;8.614;2022-10-31T09:02:14;13.40;99.90
3860;DHT22;1945;52.036;8.614;2022-10-31T09:04:41;13.40;99.90
3860;DHT22;1945;52.036;8.614;2022-10-31T09:07:07;13.40;99.90
3860;DHT22;1945;52.036;8.614;2022-10-31T09:09:34;13.50;99.90
3860;DHT22;1945;52.036;8.614;2022-10-31T09:12:01;13.50;99.90
3860;DHT22;1945;52.036;8.614;2022-10-31T09:14:29;13.50;99.90
3860;DHT22;1945;52.036;8.614;2022-10-31T09:16:56;13.60;99.90
3860;DHT22;1945;52.036;8.614;2022-10-31T09:19:22;13.60;99.90
3860;DHT22;1945;52.036;8.614;2022-10-31T09:21:52;13.70;99.90
3860;DHT22;1945;52.036;8.614;2022-10-31T09:24:19;13.70;99.90
3860;DHT22;1945;52.036;8.614;2022-10-31T09:26:46;13.80;99.90
3860;DHT22;1945;52.036;8.614;2022-10-31T09:29:12;13.90;99.90
3860;DHT22;1945;52.036;8.614;2022-10-31T09:31:41;13.90;99.90
3860;DHT22;1945;52.036;8.614;2022-10-31T09:34:10;14.00;99.90
3860;DHT22;1945;52.036;8.614;2022-10-31T09:36:38;14.00;99.90
3860;DHT22;1945;52.036;8.614;2022-10-31T09:39:04;14.00;99.90
3860;DHT22;1945;52.036;8.614;2022-10-31T09:41:44;14.10;99.90
3860;DHT22;1945;52.036;8.614;2022-10-31T09:44:20;14.10;99.90
3860;DHT22;1945;52.036;8.614;2022-10-31T09:46:54;14.10;99.90
3860;DHT22;1945;52.036;8.614;2022-10-31T09:49:35;14.30;99.90
3860;DHT22;1945;52.036;8.614;2022-10-31T09:52:12;14.30;99.90
3860;DHT22;1945;52.036;8.614;2022-10-31T09:54:44;14.30;99.90
3860;DHT22;1945;52.036;8.614;2022-10-31T09:57:14;14.30;99.90
3860;DHT22;1945;52.036;8.614;2022-10-31T09:59:44;14.30;99.90
3860;DHT22;1945;52.036;8.614;2022-10-31T10:02:16;14.40;99.90
3860;DHT22;1945;52.036;8.614;2022-10-31T10:04:48;14.50;99.90
3860;DHT22;1945;52.036;8.614;2022-10-31T10:07:24;14.50;99.90
3860;DHT22;1945;52.036;8.614;2022-10-31T10:09:52;14.50;99.90
3860;DHT22;1945;52.036;8.614;2022-10-31T10:12:28;14.50;99.90
3860;DHT22;1945;52.036;8.614;2022-10-31T10:15:19;14.60;99.90
3860;DHT22;1945;52.036;8.614;2022-10-31T10:17:57;14.60;99.90
3860;DHT22;1945;52.036;8.614;2022-10-31T10:20:33;14.70;99.90
3860;DHT22;1945;52.036;8.614;2022-10-31T10:23:22;14.80;99.90
3860;DHT22;1945;52.036;8.614;2022-10-31T10:25:53;14.80;99.90
3860;DHT22;1945;52.036;8.614;2022-10-31T10:28:28;14.90;99.90
3860;DHT22;1945;52.036;8.614;2022-10-31T10:31:01;15.00;99.90
3860;DHT22;1945;52.036;8.614;2022-10-31T10:33:33;15.10;99.90
3860;DHT22;1945;52.036;8.614;2022-10-31T10:36:05;15.20;99.90
3860;DHT22;1945;52.036;8.614;2022-10-31T10:38:36;15.20;99.90
3860;DHT22;1945;52.036;8.614;2022-10-31T10:41:10;15.30;99.90
3860;DHT22;1945;52.036;8.614;2022-10-31T10:43:39;15.30;99.90
3860;DHT22;1945;52.036;8.614;2022-10-31T10:46:17;15.40;99.90
3860;DHT22;1945;52.036;8.614;2022-10-31T10:49:13;15.50;99.90
3860;DHT22;1945;52.036;8.614;2022-10-31T10:51:46;15.60;99.90
3860;DHT22;1945;52.036;8.614;2022-10-31T10:57:27;15.70;99.90
3860;DHT22;1945;52.036;8.614;2022-10-31T10:59:57;15.80;99.90
3860;DHT22;1945;52.036;8.614;2022-10-31T11:02:26;15.90;99.90
3860;DHT22;1945;52.036;8.614;2022-10-31T11:04:57;15.90;69.70
3860;DHT22;1945;52.036;8.614;2022-10-31T11:07:25;16.00;43.40
3860;DHT22;1945;52.036;8.614;2022-10-31T11:10:03;16.50;1.00
3860;DHT22;1945;52.036;8.614;2022-10-31T11:12:32;16.20;1.00
3860;DHT22;1945;52.036;8.614;2022-10-31T11:15:02;16.30;1.00
3860;DHT22;1945;52.036;8.614;2022-10-31T11:17:33;16.30;1.00
3860;DHT22;1945;52.036;8.614;2022-10-31T11:20:26;16.60;99.90
3860;DHT22;1945;52.036;8.614;2022-10-31T11:23:03;16.60;1.00
3860;DHT22;1945;52.036;8.614;2022-10-31T11:25:31;16.50;1.00
3860;DHT22;1945;52.036;8.614;2022-10-31T11:28:02;16.50;1.00
3860;DHT22;1945;52.036;8.614;2022-10-31T11:30:30;16.40;1.00
3860;DHT22;1945;52.036;8.614;2022-10-31T11:33:01;16.70;1.00
3860;DHT22;1945;52.036;8.614;2022-10-31T11:35:31;16.50;1.00
3860;DHT22;1945;52.036;8.614;2022-10-31T11:37:58;16.60;1.00
3860;DHT22;1945;52.036;8.614;2022-10-31T11:40:27;16.60;1.00
3860;DHT22;1945;52.036;8.614;2022-10-31T11:42:56;16.60;1.00
3860;DHT22;1945;52.036;8.614;2022-10-31T11:45:32;16.60;1.00
3860;DHT22;1945;52.036;8.614;2022-10-31T11:48:01;16.60;1.00
3860;DHT22;1945;52.036;8.614;2022-10-31T11:50:40;16.60;1.00
3860;DHT22;1945;52.036;8.614;2022-10-31T11:53:14;16.60;1.00
3860;DHT22;1945;52.036;8.614;2022-10-31T11:55:41;16.60;1.00
3860;DHT22;1945;52.036;8.614;2022-10-31T11:58:20;16.60;1.00
3860;DHT22;1945;52.036;8.614;2022-10-31T12:00:49;17.00;1.00
3860;DHT22;1945;52.036;8.614;2022-10-31T12:03:37;16.60;1.00
3860;DHT22;1945;52.036;8.614;2022-10-31T12:06:13;16.70;1.00
3860;DHT22;1945;52.036;8.614;2022-10-31T12:08:41;16.70;1.00
3860;DHT22;1945;52.036;8.614;2022-10-31T12:11:17;16.80;1.00
3860;DHT22;1945;52.036;8.614;2022-10-31T12:13:56;16.80;1.00
3860;DHT22;1945;52.036;8.614;2022-10-31T12:16:31;16.80;1.00
3860;DHT22;1945;52.036;8.614;2022-10-31T12:19:03;16.80;1.00
3860;DHT22;1945;52.036;8.614;2022-10-31T12:22:01;16.90;1.00
3860;DHT22;1945;52.036;8.614;2022-10-31T12:24:38;16.80;1.00
3860;DHT22;1945;52.036;8.614;2022-10-31T12:27:19;17.00;1.00
3860;DHT22;1945;52.036;8.614;2022-10-31T12:30:02;17.40;1.00
3860;DHT22;1945;52.036;8.614;2022-10-31T12:32:39;17.10;1.00
3860;DHT22;1945;52.036;8.614;2022-10-31T12:35:24;17.10;1.00
3860;DHT22;1945;52.036;8.614;2022-10-31T12:38:03;17.20;1.00
3860;DHT22;1945;52.036;8.614;2022-10-31T12:40:45;17.20;1.00
3860;DHT22;1945;52.036;8.614;2022-10-31T12:43:28;17.20;1.00
3860;DHT22;1945;52.036;8.614;2022-10-31T12:45:58;17.20;1.00
3860;DHT22;1945;52.036;8.614;2022-10-31T12:48:45;17.20;1.00
3860;DHT22;1945;52.036;8.614;2022-10-31T12:51:21;17.20;1.00
3860;DHT22;1945;52.036;8.614;2022-10-31T12:54:02;17.30;1.00
3860;DHT22;1945;52.036;8.614;2022-10-31T12:56:41;17.30;1.00
3860;DHT22;1945;52.036;8.614;2022-10-31T12:59:17;17.30;1.00
3860;DHT22;1945;52.036;8.614;2022-10-31T13:01:49;17.20;1.00
3860;DHT22;1945;52.036;8.614;2022-10-31T13:04:30;17.30;1.00
3860;DHT22;1945;52.036;8.614;2022-10-31T13:07:03;17.30;1.00
3860;DHT22;1945;52.036;8.614;2022-10-31T13:09:38;17.30;1.00
3860;DHT22;1945;52.036;8.614;2022-10-31T13:12:10;17.30;1.00
3860;DHT22;1945;52.036;8.614;2022-10-31T13:14:40;17.20;1.00
3860;DHT22;1945;52.036;8.614;2022-10-31T13:17:13;17.20;1.00
3860;DHT22;1945;52.036;8.614;2022-10-31T13:19:43;17.20;1.00
3860;DHT22;1945;52.036;8.614;2022-10-31T13:22:15;17.30;1.00
3860;DHT22;1945;52.036;8.614;2022-10-31T13:24:50;17.30;1.00
3860;DHT22;1945;52.036;8.614;2022-10-31T13:27:21;17.30;1.00
3860;DHT22;1945;52.036;8.614;2022-10-31T13:29:58;17.30;1.00
3860;DHT22;1945;52.036;8.614;2022-10-31T13:32:28;17.30;1.00
3860;DHT22;1945;52.036;8.614;2022-10-31T13:34:58;17.30;1.00
3860;DHT22;1945;52.036;8.614;2022-10-31T13:37:30;17.30;1.00
3860;DHT22;1945;52.036;8.614;2022-10-31T13:40:11;17.40;1.00
3860;DHT22;1945;52.036;8.614;2022-10-31T13:42:49;17.40;1.00
3860;DHT22;1945;52.036;8.614;2022-10-31T13:45:20;17.40;1.00
3860;DHT22;1945;52.036;8.614;2022-10-31T13:47:56;17.40;1.00
3860;DHT22;1945;52.036;8.614;2022-10-31T13:50:25;17.40;1.00
3860;DHT22;1945;52.036;8.614;2022-10-31T13:53:09;17.40;1.00
3860;DHT22;1945;52.036;8.614;2022-10-31T13:55:40;17.40;1.00
3860;DHT22;1945;52.036;8.614;2022-10-31T13:58:23;17.40;1.00
3860;DHT22;1945;52.036;8.614;2022-10-31T14:01:10;17.40;1.00
3860;DHT22;1945;52.036;8.614;2022-10-31T14:03:40;17.40;1.00
3860;DHT22;1945;52.036;8.614;2022-10-31T14:06:09;17.40;1.00
3860;DHT22;1945;52.036;8.614;2022-10-31T14:08:38;17.40;1.00
3860;DHT22;1945;52.036;8.614;2022-10-31T14:11:08;17.40;1.00
3860;DHT22;1945;52.036;8.614;2022-10-31T14:13:45;17.40;99.90
3860;DHT22;1945;52.036;8.614;2022-10-31T14:16:18;17.40;1.00
3860;DHT22;1945;52.036;8.614;2022-10-31T14:18:48;17.30;1.00
3860;DHT22;1945;52.036;8.614;2022-10-31T14:21:27;17.40;1.00
3860;DHT22;1945;52.036;8.614;2022-10-31T14:23:56;17.30;1.00
3860;DHT22;1945;52.036;8.614;2022-10-31T14:26:35;17.30;1.00
3860;DHT22;1945;52.036;8.614;2022-10-31T14:29:24;17.30;1.00
3860;DHT22;1945;52.036;8.614;2022-10-31T14:31:54;17.30;1.00
3860;DHT22;1945;52.036;8.614;2022-10-31T14:34:24;17.30;1.00
3860;DHT22;1945;52.036;8.614;2022-10-31T14:37:14;17.20;1.00
3860;DHT22;1945;52.036;8.614;2022-10-31T14:39:52;17.20;1.00
3860;DHT22;1945;52.036;8.614;2022-10-31T14:42:32;17.20;1.00
3860;DHT22;1945;52.036;8.614;2022-10-31T14:45:15;17.20;1.00
3860;DHT22;1945;52.036;8.614;2022-10-31T14:47:52;17.10;1.00
3860;DHT22;1945;52.036;8.614;2022-10-31T14:50:32;17.10;1.00
3860;DHT22;1945;52.036;8.614;2022-10-31T14:53:04;17.10;1.00
3860;DHT22;1945;52.036;8.614;2022-10-31T14:55:33;17.10;1.00
3860;DHT22;1945;52.036;8.614;2022-10-31T14:58:02;17.10;1.00
3860;DHT22;1945;52.036;8.614;2022-10-31T15:00:32;17.00;1.00
3860;DHT22;1945;52.036;8.614;2022-10-31T15:03:09;17.00;1.00
3860;DHT22;1945;52.036;8.614;2022-10-31T15:05:42;17.00;1.00
3860;DHT22;1945;52.036;8.614;2022-10-31T15:08:14;16.90;1.00
3860;DHT22;1945;52.036;8.614;2022-10-31T15:10:52;16.90;1.00
3860;DHT22;1945;52.036;8.614;2022-10-31T15:13:21;16.90;1.00
3860;DHT22;1945;52.036;8.614;2022-10-31T15:15:48;16.80;1.00
3860;DHT22;1945;52.036;8.614;2022-10-31T15:18:17;16.80;1.00
3860;DHT22;1945;52.036;8.614;2022-10-31T15:20:45;16.80;1.00
3860;DHT22;1945;52.036;8.614;2022-10-31T15:23:17;16.80;1.00
3860;DHT22;1945;52.036;8.614;2022-10-31T15:25:46;16.80;1.00
3860;DHT22;1945;52.036;8.614;2022-10-31T15:28:14;16.70;1.00
3860;DHT22;1945;52.036;8.614;2022-10-31T15:30:51;16.70;1.00
3860;DHT22;1945;52.036;8.614;2022-10-31T15:33:25;16.70;1.00
3860;DHT22;1945;52.036;8.614;2022-10-31T15:35:58;16.70;1.00
3860;DHT22;1945;52.036;8.614;2022-10-31T15:38:26;16.70;1.00
3860;DHT22;1945;52.036;8.614;2022-10-31T15:40:55;16.70;1.00
3860;DHT22;1945;52.036;8.614;2022-10-31T15:43:23;16.70;1.00
3860;DHT22;1945;52.036;8.614;2022-10-31T15:45:51;16.70;1.00
3860;DHT22;1945;52.036;8.614;2022-10-31T15:48:22;16.70;1.00
3860;DHT22;1945;52.036;8.614;2022-10-31T15:50:52;16.70;99.90
3860;DHT22;1945;52.036;8.614;2022-10-31T15:53:24;16.70;1.00
3860;DHT22;1945;52.036;8.614;2022-10-31T15:55:53;16.70;1.00
3860;DHT22;1945;52.036;8.614;2022-10-31T15:58:21;16.70;99.90
3860;DHT22;1945;52.036;8.614;2022-10-31T16:01:03;16.70;99.90
3860;DHT22;1945;52.036;8.614;2022-10-31T16:03:33;16.70;99.90
3860;DHT22;1945;52.036;8.614;2022-10-31T16:06:03;16.70;1.00
3860;DHT22;1945;52.036;8.614;2022-10-31T16:08:35;16.60;1.00
3860;DHT22;1945;52.036;8.614;2022-10-31T16:11:18;16.60;1.00
3860;DHT22;1945;52.036;8.614;2022-10-31T16:13:58;16.50;1.00
3860;DHT22;1945;52.036;8.614;2022-10-31T16:16:27;16.50;1.00
3860;DHT22;1945;52.036;8.614;2022-10-31T16:19:00;16.40;1.00
3860;DHT22;1945;52.036;8.614;2022-10-31T16:21:35;16.40;1.00
3860;DHT22;1945;52.036;8.614;2022-10-31T16:24:05;16.40;1.00
3860;DHT22;1945;52.036;8.614;2022-10-31T16:26:38;16.40;1.00
3860;DHT22;1945;52.036;8.614;2022-10-31T16:29:24;16.30;1.00
3860;DHT22;1945;52.036;8.614;2022-10-31T16:31:53;16.30;1.00
3860;DHT22;1945;52.036;8.614;2022-10-31T16:34:23;16.30;1.00
3860;DHT22;1945;52.036;8.614;2022-10-31T16:36:53;16.20;1.00
3860;DHT22;1945;52.036;8.614;2022-10-31T16:39:20;16.20;1.00